createdAt,value
2022-10-14T00:00:18.317Z,70.80
2022-10-14T00:02:19.994Z,70.80
2022-10-14T00:04:21.829Z,70.80
2022-10-14T00:06:25.846Z,70.80
2022-10-14T00:08:27.481Z,70.80
2022-10-14T00:10:29.329Z,70.80
2022-10-14T00:12:31.101Z,70.80
2022-10-14T00:14:32.681Z,70.80
2022-10-14T00:16:36.144Z,70.90
2022-10-14T00:18:37.764Z,70.90
2022-10-14T00:20:39.381Z,71.00
2022-10-14T00:22:41.015Z,70.80
2022-10-14T00:24:42.627Z,70.70
2022-10-14T00:26:44.712Z,70.70
2022-10-14T00:28:46.637Z,70.80
2022-10-14T00:30:55.376Z,70.80
2022-10-14T00:32:56.991Z,71.00
2022-10-14T00:34:58.642Z,71.00
2022-10-14T00:37:00.238Z,71.10
2022-10-14T00:39:01.891Z,70.90
2022-10-14T00:41:04.335Z,70.90
2022-10-14T00:43:10.045Z,70.90
2022-10-14T00:45:13.375Z,70.90
2022-10-14T00:47:15.003Z,70.80
2022-10-14T00:49:22.763Z,71.10
2022-10-14T00:51:25.120Z,71.30
2022-10-14T00:53:27.121Z,71.00
2022-10-14T00:55:31.084Z,71.00
2022-10-14T00:57:35.235Z,71.20
2022-10-14T00:59:36.885Z,71.20
2022-10-14T01:01:38.806Z,71.20
2022-10-14T01:03:40.920Z,71.30
2022-10-14T01:05:49.457Z,71.20
2022-10-14T01:07:59.407Z,71.20
2022-10-14T01:10:09.741Z,71.10
2022-10-14T01:12:28.990Z,71.20
2022-10-14T01:14:32.922Z,71.40
2022-10-14T01:16:44.246Z,71.20
2022-10-14T01:18:57.798Z,71.20
2022-10-14T01:21:12.429Z,71.20
2022-10-14T01:23:15.619Z,72.10
2022-10-14T01:25:28.668Z,71.30
2022-10-14T01:27:47.152Z,71.20
2022-10-14T01:29:48.825Z,71.30
2022-10-14T01:31:52.711Z,71.20
2022-10-14T01:33:56.757Z,71.20
2022-10-14T01:36:03.457Z,71.20
2022-10-14T01:38:21.035Z,71.20
2022-10-14T01:40:30.343Z,71.20
2022-10-14T01:42:34.326Z,71.30
2022-10-14T01:44:39.060Z,71.40
2022-10-14T01:46:46.483Z,71.30
2022-10-14T01:48:50.878Z,71.30
2022-10-14T01:50:53.689Z,71.30
2022-10-14T01:53:00.648Z,71.40
2022-10-14T01:55:05.501Z,71.30
2022-10-14T01:57:13.010Z,71.60
2022-10-14T01:59:16.242Z,71.40
2022-10-14T02:01:17.950Z,71.30
2022-10-14T02:03:20.788Z,71.40
2022-10-14T02:05:22.384Z,71.30
2022-10-14T02:07:30.172Z,71.30
2022-10-14T02:09:46.345Z,71.60
2022-10-14T02:11:56.784Z,71.40
2022-10-14T02:13:58.368Z,71.40
2022-10-14T02:16:02.996Z,71.50
2022-10-14T02:18:11.128Z,71.50
2022-10-14T02:20:24.072Z,71.50
2022-10-14T02:22:36.902Z,71.50
2022-10-14T02:24:41.814Z,71.40
2022-10-14T02:26:44.211Z,71.30
2022-10-14T02:28:46.460Z,71.40
2022-10-14T02:30:50.648Z,71.50
2022-10-14T02:32:52.894Z,71.20
2022-10-14T02:34:58.207Z,71.20
2022-10-14T02:37:00.866Z,71.00
2022-10-14T02:39:07.622Z,71.20
2022-10-14T02:41:12.739Z,71.10
2022-10-14T02:43:14.422Z,71.10
2022-10-14T02:45:16.162Z,71.10
2022-10-14T02:47:20.178Z,71.20
2022-10-14T02:49:21.860Z,71.20
2022-10-14T02:51:23.563Z,72.20
2022-10-14T02:53:25.240Z,71.50
2022-10-14T02:55:26.880Z,71.50
2022-10-14T02:57:28.500Z,71.50
2022-10-14T02:59:31.875Z,71.20
2022-10-14T03:01:37.286Z,71.20
2022-10-14T03:03:40.462Z,71.40
2022-10-14T03:05:42.520Z,71.30
2022-10-14T03:07:47.952Z,71.20
2022-10-14T03:09:52.922Z,71.20
2022-10-14T03:11:54.628Z,71.20
2022-10-14T03:13:56.830Z,71.20
2022-10-14T03:15:59.094Z,71.20
2022-10-14T03:18:01.423Z,71.20
2022-10-14T03:20:12.831Z,72.20
2022-10-14T03:22:22.011Z,71.50
2022-10-14T03:24:25.004Z,71.70
2022-10-14T03:26:45.845Z,71.70
2022-10-14T03:28:48.067Z,71.70
2022-10-14T03:30:57.234Z,71.60
2022-10-14T03:33:37.268Z,71.70
2022-10-14T03:35:43.352Z,71.80
2022-10-14T03:37:48.416Z,71.80
2022-10-14T03:39:53.180Z,71.70
2022-10-14T03:41:54.913Z,71.90
2022-10-14T03:44:06.341Z,71.70
2022-10-14T03:46:10.014Z,72.00
2022-10-14T03:48:11.908Z,72.00
2022-10-14T03:50:14.823Z,72.10
2022-10-14T03:52:23.573Z,72.10
2022-10-14T03:54:36.828Z,72.10
2022-10-14T03:56:38.520Z,72.00
2022-10-14T03:58:40.241Z,72.00
2022-10-14T04:00:46.956Z,72.00
2022-10-14T04:03:04.539Z,71.80
2022-10-14T04:05:13.477Z,71.80
2022-10-14T04:07:16.641Z,71.90
2022-10-14T04:09:27.326Z,71.90
2022-10-14T04:11:28.960Z,71.80
2022-10-14T04:13:37.026Z,71.90
2022-10-14T04:15:38.769Z,71.80
2022-10-14T04:17:48.353Z,71.80
2022-10-14T04:19:50.796Z,71.80
2022-10-14T04:21:54.731Z,71.70
2022-10-14T04:23:58.243Z,71.80
2022-10-14T04:26:14.436Z,71.90
2022-10-14T04:28:19.269Z,71.90
2022-10-14T04:30:44.143Z,71.90
2022-10-14T04:32:51.546Z,71.90
2022-10-14T04:34:54.917Z,71.80
2022-10-14T04:36:59.228Z,71.80
2022-10-14T04:39:17.548Z,71.90
2022-10-14T04:41:20.084Z,71.80
2022-10-14T04:43:24.100Z,71.80
2022-10-14T04:45:26.332Z,71.90
2022-10-14T04:47:34.418Z,71.80
2022-10-14T04:49:37.136Z,71.90
2022-10-14T04:51:45.624Z,71.90
2022-10-14T04:53:53.178Z,71.90
2022-10-14T04:56:13.535Z,71.90
2022-10-14T04:58:25.766Z,72.00
2022-10-14T05:00:28.634Z,71.90
2022-10-14T05:02:37.485Z,71.90
2022-10-14T05:04:39.180Z,71.90
2022-10-14T05:06:41.935Z,72.00
2022-10-14T05:08:45.986Z,72.00
2022-10-14T05:10:48.552Z,72.00
2022-10-14T05:13:00.868Z,71.90
2022-10-14T05:15:06.750Z,72.00
2022-10-14T05:17:15.028Z,72.20
2022-10-14T05:19:16.955Z,72.20
2022-10-14T05:21:24.538Z,72.20
2022-10-14T05:23:45.838Z,72.10
2022-10-14T05:25:48.080Z,72.20
2022-10-14T05:27:49.825Z,72.10
2022-10-14T05:29:51.465Z,72.10
2022-10-14T05:31:53.150Z,72.00
2022-10-14T05:34:04.002Z,71.90
2022-10-14T05:36:06.911Z,71.90
2022-10-14T05:38:09.456Z,71.80
2022-10-14T05:40:14.575Z,72.00
2022-10-14T05:42:16.301Z,72.20
2022-10-14T05:44:18.658Z,72.10
2022-10-14T05:46:21.549Z,72.10
2022-10-14T05:48:28.680Z,72.20
2022-10-14T05:50:30.831Z,72.10
2022-10-14T05:52:39.732Z,72.00
2022-10-14T05:54:48.781Z,72.00
2022-10-14T05:56:54.027Z,71.90
2022-10-14T05:58:57.321Z,72.20
2022-10-14T06:01:00.141Z,72.10
2022-10-14T06:03:01.970Z,72.00
2022-10-14T06:05:04.385Z,72.10
2022-10-14T06:07:06.779Z,72.20
2022-10-14T06:09:11.632Z,72.20
2022-10-14T06:11:13.910Z,72.10
2022-10-14T06:13:15.538Z,72.10
2022-10-14T06:15:20.392Z,72.10
2022-10-14T06:17:22.441Z,72.00
2022-10-14T06:19:24.164Z,72.10
2022-10-14T06:21:26.165Z,72.10
2022-10-14T06:23:27.857Z,72.10
2022-10-14T06:25:29.908Z,72.10
2022-10-14T06:27:31.569Z,72.30
2022-10-14T06:29:37.883Z,72.20
2022-10-14T06:31:39.497Z,72.30
2022-10-14T06:33:44.278Z,72.20
2022-10-14T06:35:46.495Z,72.20
2022-10-14T06:37:48.133Z,72.20
2022-10-14T06:39:49.777Z,72.20
2022-10-14T06:41:51.430Z,72.20
2022-10-14T06:43:58.320Z,72.20
2022-10-14T06:45:59.946Z,72.20
2022-10-14T06:48:01.933Z,72.30
2022-10-14T06:50:04.024Z,72.30
2022-10-14T06:52:05.653Z,72.20
2022-10-14T06:54:07.999Z,72.10
2022-10-14T06:56:11.890Z,72.00
2022-10-14T06:58:13.517Z,71.90
2022-10-14T07:00:15.491Z,71.90
2022-10-14T07:02:17.135Z,72.00
2022-10-14T07:04:18.789Z,72.10
2022-10-14T07:06:20.446Z,72.10
2022-10-14T07:08:22.112Z,72.10
2022-10-14T07:10:23.768Z,72.10
2022-10-14T07:12:25.704Z,72.20
2022-10-14T07:14:27.454Z,72.10
2022-10-14T07:16:29.375Z,72.10
2022-10-14T07:18:31.438Z,72.10
2022-10-14T07:20:33.902Z,72.10
2022-10-14T07:22:38.868Z,72.10
2022-10-14T07:24:40.955Z,72.10
2022-10-14T07:26:42.605Z,72.10
2022-10-14T07:28:44.458Z,72.10
2022-10-14T07:30:46.150Z,72.10
2022-10-14T07:32:47.804Z,72.20
2022-10-14T07:34:49.554Z,72.20
2022-10-14T07:36:51.216Z,72.30
2022-10-14T07:38:53.185Z,72.30
2022-10-14T07:41:05.915Z,72.20
2022-10-14T07:43:07.527Z,72.30
2022-10-14T07:45:09.837Z,72.30
2022-10-14T07:47:11.513Z,72.30
2022-10-14T07:49:14.569Z,72.30
2022-10-14T07:51:16.247Z,72.40
2022-10-14T07:53:19.207Z,72.30
2022-10-14T07:55:20.860Z,72.30
2022-10-14T07:57:23.779Z,72.30
2022-10-14T07:59:25.901Z,72.30
2022-10-14T08:01:28.984Z,72.30
2022-10-14T08:03:30.774Z,72.30
2022-10-14T08:05:38.217Z,72.40
2022-10-14T08:07:40.389Z,72.30
2022-10-14T08:09:42.039Z,72.30
2022-10-14T08:11:44.464Z,72.30
2022-10-14T08:13:46.667Z,72.30
2022-10-14T08:15:48.321Z,72.40
2022-10-14T08:17:49.967Z,72.40
2022-10-14T08:19:51.650Z,72.40
2022-10-14T08:21:53.472Z,72.50
2022-10-14T08:23:55.396Z,72.40
2022-10-14T08:25:57.036Z,72.50
2022-10-14T08:27:58.853Z,72.60
2022-10-14T08:30:00.492Z,72.60
2022-10-14T08:32:02.200Z,72.60
2022-10-14T08:34:03.928Z,72.50
2022-10-14T08:36:05.862Z,72.50
2022-10-14T08:38:07.576Z,72.50
2022-10-14T08:40:11.247Z,72.50
2022-10-14T08:42:12.926Z,72.50
2022-10-14T08:44:33.272Z,72.50
2022-10-14T08:46:38.263Z,72.50
2022-10-14T08:48:39.912Z,72.50
2022-10-14T08:50:46.415Z,72.50
2022-10-14T08:52:57.245Z,72.50
2022-10-14T08:55:01.684Z,73.20
2022-10-14T08:57:04.481Z,72.30
2022-10-14T08:59:10.263Z,72.30
2022-10-14T09:01:26.944Z,72.30
2022-10-14T09:03:33.430Z,72.30
2022-10-14T09:05:35.285Z,72.30
2022-10-14T09:07:37.125Z,72.20
2022-10-14T09:09:46.123Z,72.00
2022-10-14T09:11:56.665Z,71.90
2022-10-14T09:13:59.629Z,72.70
2022-10-14T09:16:04.122Z,71.90
2022-10-14T09:18:10.906Z,71.90
2022-10-14T09:20:20.762Z,71.90
2022-10-14T09:22:24.060Z,71.90
2022-10-14T09:24:31.878Z,71.90
2022-10-14T09:26:38.927Z,71.90
2022-10-14T09:28:41.872Z,71.90
2022-10-14T09:30:43.631Z,72.00
2022-10-14T09:32:49.107Z,72.00
2022-10-14T09:34:51.637Z,72.00
2022-10-14T09:36:53.549Z,71.90
2022-10-14T09:38:56.232Z,72.00
2022-10-14T09:41:00.971Z,72.00
2022-10-14T09:43:14.735Z,72.00
2022-10-14T09:45:17.847Z,72.00
2022-10-14T09:47:19.610Z,72.10
2022-10-14T09:49:41.623Z,72.10
2022-10-14T09:51:43.658Z,72.20
2022-10-14T09:53:49.030Z,72.10
2022-10-14T09:55:58.597Z,72.10
2022-10-14T09:58:03.986Z,72.20
2022-10-14T10:00:06.483Z,72.30
2022-10-14T10:02:19.397Z,72.40
2022-10-14T10:04:34.791Z,72.50
2022-10-14T10:06:50.473Z,72.50
2022-10-14T10:08:58.417Z,72.40
2022-10-14T10:11:05.563Z,72.40
2022-10-14T10:13:22.042Z,72.30
2022-10-14T10:15:24.226Z,72.30
2022-10-14T10:17:27.676Z,72.30
2022-10-14T10:19:31.940Z,72.30
2022-10-14T10:21:33.642Z,72.30
2022-10-14T10:23:36.456Z,72.30
2022-10-14T10:25:38.065Z,72.20
2022-10-14T10:27:45.825Z,72.10
2022-10-14T10:29:47.525Z,72.10
2022-10-14T10:32:06.437Z,72.10
2022-10-14T10:34:21.039Z,72.10
2022-10-14T10:36:22.669Z,72.00
2022-10-14T10:38:30.857Z,72.10
2022-10-14T10:40:52.768Z,72.10
2022-10-14T10:43:13.326Z,72.00
2022-10-14T10:45:36.439Z,72.00
2022-10-14T10:47:50.930Z,71.90
2022-10-14T10:50:21.727Z,71.80
2022-10-14T10:52:32.173Z,72.00
2022-10-14T10:54:42.891Z,71.90
2022-10-14T10:56:48.804Z,71.80
2022-10-14T10:58:55.081Z,71.90
2022-10-14T11:01:05.316Z,71.90
2022-10-14T11:03:25.553Z,71.70
2022-10-14T11:05:39.381Z,71.80
2022-10-14T11:08:10.783Z,71.80
2022-10-14T11:10:37.633Z,71.90
2022-10-14T11:12:40.933Z,71.90
2022-10-14T11:14:57.784Z,71.90
2022-10-14T11:17:01.504Z,71.80
2022-10-14T11:19:12.297Z,71.90
2022-10-14T11:21:35.185Z,71.80
2022-10-14T11:23:49.207Z,71.80
2022-10-14T11:26:07.259Z,72.00
2022-10-14T11:28:08.881Z,72.00
2022-10-14T11:30:22.332Z,71.90
2022-10-14T11:32:27.357Z,71.80
2022-10-14T11:34:28.981Z,72.00
2022-10-14T11:36:49.959Z,72.10
2022-10-14T11:38:51.575Z,72.00
2022-10-14T11:40:59.373Z,72.00
2022-10-14T11:43:16.195Z,72.10
2022-10-14T11:45:20.462Z,72.20
2022-10-14T11:47:32.592Z,72.20
2022-10-14T11:49:41.118Z,72.10
2022-10-14T11:51:47.341Z,72.10
2022-10-14T11:54:07.859Z,72.10
2022-10-14T11:56:29.493Z,72.20
2022-10-14T11:58:32.552Z,72.20
2022-10-14T12:00:54.968Z,72.20
2022-10-14T12:03:09.202Z,72.20
2022-10-14T12:05:16.950Z,72.20
2022-10-14T12:07:22.420Z,72.20
2022-10-14T12:09:24.299Z,73.00
2022-10-14T12:11:44.466Z,72.20
2022-10-14T12:13:48.077Z,72.30
2022-10-14T12:15:51.833Z,72.30
2022-10-14T12:17:53.547Z,72.20
2022-10-14T12:19:56.659Z,72.10
2022-10-14T12:22:03.083Z,72.10
2022-10-14T12:24:07.006Z,72.10
2022-10-14T12:26:22.342Z,72.20
2022-10-14T12:28:24.339Z,72.20
2022-10-14T12:30:37.032Z,72.30
2022-10-14T12:32:58.798Z,72.20
2022-10-14T12:35:01.342Z,72.30
2022-10-14T12:37:27.162Z,72.30
2022-10-14T12:39:34.723Z,72.20
2022-10-14T12:41:36.343Z,72.20
2022-10-14T12:43:38.011Z,72.30
2022-10-14T12:45:47.371Z,72.30
2022-10-14T12:48:01.743Z,72.40
2022-10-14T12:50:15.516Z,72.50
2022-10-14T12:52:23.971Z,72.50
2022-10-14T12:54:26.157Z,72.50
2022-10-14T12:56:29.189Z,72.50
2022-10-14T12:58:33.236Z,72.50
2022-10-14T13:00:41.130Z,72.50
2022-10-14T13:02:46.210Z,72.50
2022-10-14T13:04:52.045Z,72.50
2022-10-14T13:07:35.467Z,72.60
2022-10-14T13:09:34.743Z,72.50
2022-10-14T13:11:38.604Z,72.50
2022-10-14T13:13:49.170Z,72.50
2022-10-14T13:15:51.632Z,72.50
2022-10-14T13:17:53.941Z,72.50
2022-10-14T13:19:55.709Z,72.50
2022-10-14T13:21:57.579Z,72.50
2022-10-14T13:24:01.346Z,72.50
2022-10-14T13:26:15.962Z,72.50
2022-10-14T13:28:24.287Z,72.50
2022-10-14T13:30:49.337Z,72.50
2022-10-14T13:32:58.374Z,72.40
2022-10-14T13:35:03.182Z,72.40
2022-10-14T13:37:16.815Z,72.30
2022-10-14T13:39:18.647Z,72.40
2022-10-14T13:41:30.791Z,72.30
2022-10-14T13:43:40.504Z,72.40
2022-10-14T13:45:47.692Z,72.40
2022-10-14T13:47:49.611Z,72.50
2022-10-14T13:49:53.030Z,72.50
2022-10-14T13:51:59.858Z,72.40
2022-10-14T13:54:21.855Z,72.40
2022-10-14T13:56:26.979Z,72.50
2022-10-14T13:58:30.980Z,72.40
2022-10-14T14:00:42.627Z,72.50
2022-10-14T14:02:44.861Z,72.30
2022-10-14T14:04:55.838Z,72.30
2022-10-14T14:07:27.444Z,72.30
2022-10-14T14:09:30.164Z,72.40
2022-10-14T14:11:36.119Z,72.40
2022-10-14T14:13:49.795Z,72.40
2022-10-14T14:15:53.998Z,72.50
2022-10-14T14:17:55.759Z,72.40
2022-10-14T14:19:58.442Z,72.50
2022-10-14T14:22:15.251Z,72.50
2022-10-14T14:24:19.159Z,72.50
2022-10-14T14:26:28.683Z,72.50
2022-10-14T14:28:31.979Z,72.60
2022-10-14T14:30:34.893Z,72.60
2022-10-14T14:32:37.833Z,72.60
2022-10-14T14:34:42.601Z,72.60
2022-10-14T14:36:51.183Z,73.40
2022-10-14T14:38:58.736Z,72.50
2022-10-14T14:41:04.940Z,72.60
2022-10-14T14:43:11.516Z,72.50
2022-10-14T14:45:15.242Z,72.50
2022-10-14T14:47:16.980Z,72.60
2022-10-14T14:49:23.279Z,72.60
2022-10-14T14:51:26.454Z,72.60
2022-10-14T14:53:31.702Z,72.80
2022-10-14T14:55:34.817Z,72.80
2022-10-14T14:57:36.500Z,72.70
2022-10-14T14:59:39.014Z,72.80
2022-10-14T15:01:42.282Z,72.80
2022-10-14T15:04:13.072Z,72.90
2022-10-14T15:06:17.604Z,73.00
2022-10-14T15:08:22.741Z,73.00
2022-10-14T15:10:26.602Z,73.00
2022-10-14T15:12:39.302Z,73.00
2022-10-14T15:14:48.220Z,72.90
2022-10-14T15:16:54.228Z,72.60
2022-10-14T15:19:14.031Z,73.40
2022-10-14T15:21:21.579Z,72.70
2022-10-14T15:23:41.818Z,72.60
2022-10-14T15:25:43.502Z,72.40
2022-10-14T15:27:49.609Z,72.60
2022-10-14T15:30:10.010Z,72.60
2022-10-14T15:32:13.472Z,72.70
2022-10-14T15:34:19.922Z,72.80
2022-10-14T15:36:21.729Z,72.60
2022-10-14T15:38:24.047Z,72.50
2022-10-14T15:40:32.320Z,72.50
2022-10-14T15:42:33.995Z,72.70
2022-10-14T15:44:35.628Z,72.70
2022-10-14T15:47:03.938Z,72.90
2022-10-14T15:49:13.805Z,72.60
2022-10-14T15:51:16.726Z,72.60
2022-10-14T15:53:19.136Z,72.80
2022-10-14T15:55:22.405Z,73.00
2022-10-14T15:57:24.517Z,73.10
2022-10-14T15:59:26.760Z,73.00
2022-10-14T16:01:28.442Z,72.70
2022-10-14T16:03:34.575Z,72.70
2022-10-14T16:05:38.514Z,72.80
2022-10-14T16:07:45.366Z,72.90
2022-10-14T16:09:47.145Z,72.90
2022-10-14T16:11:56.902Z,72.90
2022-10-14T16:13:58.625Z,72.90
2022-10-14T16:16:01.519Z,73.00
2022-10-14T16:18:03.303Z,73.10
2022-10-14T16:20:05.208Z,73.20
2022-10-14T16:22:06.919Z,73.20
2022-10-14T16:24:19.028Z,72.80
2022-10-14T16:26:24.916Z,73.00
2022-10-14T16:28:26.718Z,73.00
2022-10-14T16:30:28.389Z,73.10
2022-10-14T16:32:30.041Z,73.10
2022-10-14T16:34:32.373Z,73.10
2022-10-14T16:36:34.043Z,73.40
2022-10-14T16:38:37.759Z,73.20
2022-10-14T16:40:39.433Z,74.00
2022-10-14T16:42:41.653Z,73.30
2022-10-14T16:44:43.407Z,73.40
2022-10-14T16:47:20.755Z,73.40
2022-10-14T16:49:22.815Z,73.50
2022-10-14T16:51:24.479Z,73.50
2022-10-14T16:53:46.689Z,73.30
2022-10-14T16:55:48.367Z,73.40
2022-10-14T16:57:50.113Z,73.30
2022-10-14T16:59:51.837Z,73.30
2022-10-14T17:01:53.707Z,73.50
2022-10-14T17:03:56.593Z,73.50
2022-10-14T17:06:01.176Z,73.50
2022-10-14T17:08:02.951Z,73.40
2022-10-14T17:10:05.085Z,73.40
2022-10-14T17:12:09.625Z,73.70
2022-10-14T17:14:15.425Z,73.70
2022-10-14T17:16:17.043Z,73.50
2022-10-14T17:18:22.052Z,73.50
2022-10-14T17:20:26.650Z,73.40
2022-10-14T17:22:28.320Z,73.40
2022-10-14T17:24:30.255Z,73.50
2022-10-14T17:26:32.632Z,73.70
2022-10-14T17:28:34.331Z,73.50
2022-10-14T17:30:36.177Z,73.80
2022-10-14T17:32:37.922Z,73.80
2022-10-14T17:34:39.752Z,73.70
2022-10-14T17:36:41.946Z,73.70
2022-10-14T17:38:44.580Z,73.80
2022-10-14T17:40:46.229Z,73.80
2022-10-14T17:42:50.344Z,73.90
2022-10-14T17:44:52.543Z,74.00
2022-10-14T17:46:54.289Z,74.00
2022-10-14T17:48:57.073Z,74.00
2022-10-14T17:50:59.048Z,74.00
2022-10-14T17:53:00.919Z,74.00
2022-10-14T17:55:02.634Z,74.00
2022-10-14T17:57:04.292Z,74.00
2022-10-14T17:59:07.390Z,73.90
2022-10-14T18:01:10.532Z,74.00
2022-10-14T18:03:12.334Z,74.50
2022-10-14T18:05:14.101Z,74.20
2022-10-14T18:07:16.229Z,74.30
2022-10-14T18:09:18.578Z,74.30
2022-10-14T18:11:23.757Z,74.30
2022-10-14T18:13:25.943Z,74.30
2022-10-14T18:15:27.689Z,74.30
2022-10-14T18:17:29.521Z,74.40
2022-10-14T18:19:31.224Z,74.40
2022-10-14T18:21:34.986Z,74.30
2022-10-14T18:23:38.954Z,74.40
2022-10-14T18:25:40.621Z,74.50
2022-10-14T18:27:42.486Z,74.50
2022-10-14T18:29:44.268Z,74.50
2022-10-14T18:31:46.015Z,74.40
2022-10-14T18:33:48.237Z,74.50
2022-10-14T18:35:52.044Z,74.30
2022-10-14T18:37:53.744Z,74.30
2022-10-14T18:39:55.439Z,74.30
2022-10-14T18:41:57.126Z,74.20
2022-10-14T18:43:59.132Z,74.20
2022-10-14T18:46:04.544Z,74.20
2022-10-14T18:48:06.271Z,74.20
2022-10-14T18:50:08.215Z,74.10
2022-10-14T18:52:09.991Z,74.10
2022-10-14T18:54:16.030Z,74.00
2022-10-14T18:56:18.949Z,74.00
2022-10-14T18:58:20.742Z,74.00
2022-10-14T19:00:22.485Z,74.00
2022-10-14T19:02:24.653Z,74.00
2022-10-14T19:04:29.402Z,74.00
2022-10-14T19:06:32.719Z,74.00
2022-10-14T19:08:36.904Z,73.90
2022-10-14T19:10:38.710Z,74.00
2022-10-14T19:12:43.739Z,73.90
2022-10-14T19:14:46.735Z,73.80
2022-10-14T19:16:49.606Z,73.80
2022-10-14T19:18:55.432Z,73.90
2022-10-14T19:21:09.057Z,73.70
2022-10-14T19:23:10.841Z,73.60
2022-10-14T19:25:12.642Z,73.50
2022-10-14T19:27:14.498Z,73.50
2022-10-14T19:29:16.257Z,73.60
2022-10-14T19:31:22.490Z,73.50
2022-10-14T19:33:24.236Z,73.70
2022-10-14T19:35:26.114Z,73.60
2022-10-14T19:37:28.449Z,73.60
2022-10-14T19:39:33.802Z,73.50
2022-10-14T19:41:39.460Z,73.50
2022-10-14T19:43:41.203Z,73.70
2022-10-14T19:45:44.678Z,73.50
2022-10-14T19:47:48.648Z,73.60
2022-10-14T19:49:50.504Z,73.60
2022-10-14T19:51:52.264Z,73.60
2022-10-14T19:53:54.996Z,73.50
2022-10-14T19:56:03.931Z,73.60
2022-10-14T19:58:05.950Z,73.50
2022-10-14T20:00:08.139Z,73.50
2022-10-14T20:02:10.149Z,73.50
2022-10-14T20:04:11.921Z,73.50
2022-10-14T20:06:14.028Z,73.50
2022-10-14T20:10:17.456Z,73.50
2022-10-14T20:12:19.346Z,73.60
2022-10-14T20:14:21.105Z,73.50
2022-10-14T20:16:22.933Z,73.50
2022-10-14T20:18:24.940Z,73.60
2022-10-14T20:20:26.702Z,73.70
2022-10-14T20:22:28.612Z,73.60
2022-10-14T20:24:30.366Z,73.70
2022-10-14T20:26:32.840Z,73.70
2022-10-14T20:28:35.736Z,73.70
2022-10-14T20:30:41.366Z,73.70
2022-10-14T20:32:43.117Z,73.60
2022-10-14T20:34:44.809Z,73.50
2022-10-14T20:36:46.581Z,73.50
2022-10-14T20:38:49.054Z,73.50
2022-10-14T20:40:50.799Z,73.50
2022-10-14T20:42:52.624Z,73.50
2022-10-14T20:44:54.505Z,73.50
2022-10-14T20:46:56.286Z,73.50
2022-10-14T20:48:58.417Z,73.50
2022-10-14T20:51:00.282Z,73.60
2022-10-14T20:53:05.127Z,73.50
2022-10-14T20:55:06.975Z,73.40
2022-10-14T20:57:09.061Z,73.40
2022-10-14T20:59:12.275Z,73.40
2022-10-14T21:01:15.039Z,73.40
2022-10-14T21:03:16.815Z,73.40
2022-10-14T21:05:19.250Z,73.30
2022-10-14T21:07:21.261Z,73.30
2022-10-14T21:09:23.147Z,73.40
2022-10-14T21:11:25.411Z,73.40
2022-10-14T21:13:27.984Z,73.30
2022-10-14T21:15:29.678Z,73.30
2022-10-14T21:17:31.388Z,73.40
2022-10-14T21:19:34.151Z,73.40
2022-10-14T21:21:40.653Z,73.40
2022-10-14T21:23:42.385Z,73.40
2022-10-14T21:25:44.738Z,73.40
2022-10-14T21:27:46.429Z,73.40
2022-10-14T21:29:49.728Z,73.40
2022-10-14T21:31:51.465Z,74.10
2022-10-14T21:34:01.150Z,73.40
2022-10-14T21:36:07.267Z,73.40
2022-10-14T21:38:08.912Z,73.40
2022-10-14T21:40:10.769Z,73.60
2022-10-14T21:42:14.279Z,73.50
2022-10-14T21:44:17.222Z,73.60
2022-10-14T21:46:18.922Z,73.50
2022-10-14T21:48:21.032Z,73.60
2022-10-14T21:50:22.697Z,73.50
2022-10-14T21:52:24.802Z,73.70
2022-10-14T21:54:26.853Z,73.60
2022-10-14T21:56:28.754Z,73.70
2022-10-14T21:58:30.860Z,73.60
2022-10-14T22:00:32.528Z,73.70
2022-10-14T22:02:34.457Z,73.70
2022-10-14T22:04:38.290Z,73.70
2022-10-14T22:06:40.126Z,73.50
2022-10-14T22:08:43.169Z,73.70
2022-10-14T22:10:45.396Z,73.60
2022-10-14T22:12:47.050Z,73.70
2022-10-14T22:14:49.018Z,73.70
2022-10-14T22:16:50.703Z,73.70
2022-10-14T22:18:53.616Z,73.70
2022-10-14T22:21:03.734Z,73.60
2022-10-14T22:23:05.510Z,73.70
2022-10-14T22:25:07.426Z,73.70
2022-10-14T22:27:09.031Z,73.70
2022-10-14T22:29:13.086Z,73.70
2022-10-14T22:31:16.632Z,73.70
2022-10-14T22:33:18.311Z,73.70
2022-10-14T22:35:21.175Z,73.80
2022-10-14T22:37:23.024Z,73.80
2022-10-14T22:39:24.796Z,73.90
2022-10-14T22:41:30.936Z,73.80
2022-10-14T22:43:36.414Z,73.90
2022-10-14T22:45:38.031Z,73.80
2022-10-14T22:47:39.662Z,74.00
2022-10-14T22:49:41.364Z,73.80
2022-10-14T22:51:42.952Z,73.70
2022-10-14T22:53:44.966Z,73.70
2022-10-14T22:55:53.494Z,73.80
2022-10-14T22:57:55.136Z,73.80
2022-10-14T23:00:00.091Z,73.80
2022-10-14T23:02:01.785Z,73.90
2022-10-14T23:04:03.868Z,74.00
2022-10-14T23:06:06.513Z,74.10
2022-10-14T23:08:10.567Z,74.00
2022-10-14T23:10:12.190Z,74.00
2022-10-14T23:12:13.969Z,74.10
2022-10-14T23:14:15.939Z,74.10
2022-10-14T23:16:18.652Z,74.00
2022-10-14T23:18:20.297Z,74.40
2022-10-14T23:20:21.936Z,74.20
2022-10-14T23:22:23.910Z,74.20
2022-10-14T23:24:26.216Z,74.20
2022-10-14T23:26:31.438Z,74.20
2022-10-14T23:28:33.201Z,74.20
2022-10-14T23:30:34.893Z,74.10
2022-10-14T23:32:36.538Z,74.10
2022-10-14T23:34:38.224Z,74.10
2022-10-14T23:36:40.312Z,74.10
2022-10-14T23:38:42.094Z,74.10
2022-10-14T23:40:43.774Z,74.10
2022-10-14T23:42:45.454Z,74.10
2022-10-14T23:44:47.084Z,74.10
2022-10-14T23:46:50.209Z,74.00
2022-10-14T23:49:01.225Z,74.20
2022-10-14T23:51:14.203Z,74.10
2022-10-14T23:53:15.806Z,74.10
2022-10-14T23:55:17.464Z,74.10
2022-10-14T23:57:19.356Z,74.10
2022-10-14T23:59:20.996Z,74.10
